»·PEaware :: N899M KSAC-KLAX

N899M :: KSAC-KLAX

FLIGHT INFORMATION

Flight Status: Arrived
Operator: Privately registered:
United States
More flights under this callsign
Pilot: Robert C. (30425)
Aircraft: Unknown
(EPIC)
More flights by this aircraft type
Origin: KSAC Sacramento Executive
United States
Destination: KLAX Los Angeles Intl
United States
More flights between these airports :: More routes between these airports
Route: +LIN V459 TTE KIMMO3
File this flight plan on PilotEdge
Remarks:
Altitude:
(Current/Filed)
17,000ft
Speed:
(Current/Filed)
300kts
Departed: 30-Oct-20 04:31 PM
Arrived: 30-Oct-20 05:50 PM
Distance/Time
Traveled:
313nm/1:19
Distance/Time
To Go:
Arrived

Flight Plot

Page will automatically refresh every two minutes.

Flight plan parsing failed; only flown route is shown


Map Options




Map Legend


Flown Route
Filed Route
Departure Airport
Arrival Airport
Navaid (VOR, NDB)
Fix

Horizontal Profiles

Position Reports

Time Latitude Longitude Heading Altitude Ground
Speed
30-Oct-20 16:03 38.520410 -121.495868 302 24ft 0kts
30-Oct-20 16:04 38.520410 -121.495868 302 24ft 0kts
30-Oct-20 16:05 38.520410 -121.495868 302 24ft 0kts
30-Oct-20 16:06 38.520410 -121.495868 302 24ft 0kts
30-Oct-20 16:07 38.520410 -121.495868 302 24ft 0kts
30-Oct-20 16:08 38.520410 -121.495868 302 24ft 0kts
30-Oct-20 16:09 38.520410 -121.495868 302 24ft 0kts
30-Oct-20 16:10 38.520410 -121.495868 302 24ft 0kts
30-Oct-20 16:11 38.520410 -121.495868 302 24ft 0kts
30-Oct-20 16:12 38.520410 -121.495868 302 24ft 0kts
30-Oct-20 16:13 38.520410 -121.495868 302 24ft 0kts
30-Oct-20 16:14 38.520410 -121.495868 302 24ft 0kts
30-Oct-20 16:15 38.520410 -121.495868 302 24ft 0kts
30-Oct-20 16:16 38.520410 -121.495868 302 24ft 0kts
30-Oct-20 16:17 38.520410 -121.495868 302 24ft 0kts
30-Oct-20 16:18 38.520410 -121.495868 302 24ft 0kts
30-Oct-20 16:19 38.520410 -121.495868 302 24ft 0kts
30-Oct-20 16:20 38.520410 -121.495868 302 24ft 0kts
30-Oct-20 16:21 38.520410 -121.495868 302 24ft 0kts
30-Oct-20 16:22 38.520410 -121.495868 302 24ft 0kts
30-Oct-20 16:23 38.520410 -121.495868 302 24ft 0kts
30-Oct-20 16:24 38.520410 -121.495868 302 24ft 0kts
30-Oct-20 16:25 38.520040 -121.496015 132 24ft 9kts
30-Oct-20 16:26 38.519324 -121.491126 80 23ft 17kts
30-Oct-20 16:27 38.519445 -121.490596 99 23ft 0kts
30-Oct-20 16:28 38.519391 -121.490515 143 23ft 0kts
30-Oct-20 16:29 38.519031 -121.489532 136 23ft 12kts
30-Oct-20 16:30 38.501226 -121.502467 199 775ft 137kts
30-Oct-20 16:31 38.480926 -121.455378 103 1983ft 192kts
30-Oct-20 16:32 38.451320 -121.389686 145 2996ft 258kts
30-Oct-20 16:33 38.391808 -121.329548 141 4413ft 280kts
30-Oct-20 16:34 38.330795 -121.266582 141 6012ft 285kts
30-Oct-20 16:35 38.268811 -121.202773 141 7611ft 289kts
30-Oct-20 16:36 38.205940 -121.138200 140 9213ft 292kts
30-Oct-20 16:37 38.142662 -121.072927 139 10812ft 296kts
30-Oct-20 16:38 38.080826 -121.003176 134 12419ft 299kts
30-Oct-20 16:39 38.029764 -120.919633 122 14033ft 303kts
30-Oct-20 16:40 37.982176 -120.830775 122 15640ft 307kts
30-Oct-20 16:41 37.933574 -120.740192 122 16913ft 317kts
30-Oct-20 16:42 37.884115 -120.648291 122 17007ft 314kts
30-Oct-20 16:43 37.834927 -120.557271 122 17008ft 312kts
30-Oct-20 16:44 37.785914 -120.466895 122 17008ft 311kts
30-Oct-20 16:45 37.736986 -120.376761 122 17009ft 311kts
30-Oct-20 16:46 37.688106 -120.286914 123 17007ft 310kts
30-Oct-20 16:47 37.639131 -120.197137 123 17007ft 310kts
30-Oct-20 16:48 37.580899 -120.117209 138 17004ft 311kts
30-Oct-20 16:49 37.515988 -120.045480 138 17007ft 311kts
30-Oct-20 16:50 37.450684 -119.973580 138 17016ft 311kts
30-Oct-20 16:51 37.386887 -119.903510 138 17017ft 300kts
30-Oct-20 16:52 37.324429 -119.835065 138 17009ft 296kts
30-Oct-20 16:53 37.262581 -119.767463 138 17009ft 294kts
30-Oct-20 16:54 37.200874 -119.700201 138 17005ft 293kts
30-Oct-20 16:55 37.139983 -119.633976 138 17002ft 293kts
30-Oct-20 16:56 37.072123 -119.579774 157 17002ft 292kts
30-Oct-20 16:57 36.996527 -119.542553 157 17001ft 292kts
30-Oct-20 16:58 36.920869 -119.505588 157 17001ft 292kts
30-Oct-20 16:59 36.845073 -119.468645 157 16999ft 293kts
30-Oct-20 17:00 36.768784 -119.431541 157 16999ft 295kts
30-Oct-20 17:01 36.692383 -119.394460 157 16999ft 295kts
30-Oct-20 17:02 36.615896 -119.357416 157 16999ft 295kts
30-Oct-20 17:03 36.539331 -119.320412 158 16999ft 296kts
30-Oct-20 17:04 36.462649 -119.283427 158 16999ft 296kts
30-Oct-20 17:05 36.386070 -119.246571 158 17000ft 296kts
30-Oct-20 17:06 36.309176 -119.209648 158 17002ft 296kts
30-Oct-20 17:07 36.232636 -119.172987 158 17004ft 296kts
30-Oct-20 17:08 36.155788 -119.136258 158 17000ft 296kts
30-Oct-20 17:09 36.079056 -119.099660 158 17001ft 296kts
30-Oct-20 17:10 36.002066 -119.063016 158 17001ft 296kts
30-Oct-20 17:11 35.925297 -119.026548 158 17001ft 296kts
30-Oct-20 17:12 35.846716 -118.996445 163 16998ft 296kts
30-Oct-20 17:13 35.767863 -118.967612 163 16996ft 295kts
30-Oct-20 17:14 35.688866 -118.938790 164 16994ft 295kts
30-Oct-20 17:15 35.611131 -118.910487 164 16996ft 294kts
30-Oct-20 17:16 35.532777 -118.882017 164 16999ft 293kts
30-Oct-20 17:17 35.454911 -118.853675 164 17000ft 291kts
30-Oct-20 17:18 35.377777 -118.825629 164 16832ft 281kts
30-Oct-20 17:19 35.307117 -118.799978 164 16007ft 253kts
30-Oct-20 17:20 35.241663 -118.776257 165 15194ft 239kts
30-Oct-20 17:21 35.178811 -118.753556 165 14391ft 233kts
30-Oct-20 17:22 35.115353 -118.730977 165 14133ft 239kts
30-Oct-20 17:23 35.051731 -118.708395 165 14172ft 237kts
30-Oct-20 17:24 34.988204 -118.685722 164 14183ft 239kts
30-Oct-20 17:25 34.923829 -118.662719 162 14184ft 244kts
30-Oct-20 17:26 34.858369 -118.639331 161 14175ft 245kts
30-Oct-20 17:27 34.793074 -118.616040 161 14141ft 246kts
30-Oct-20 17:28 34.727372 -118.592656 161 14098ft 247kts
30-Oct-20 17:29 34.662832 -118.564847 152 14064ft 245kts
30-Oct-20 17:31 34.601450 -118.529030 151 14049ft 244kts
30-Oct-20 17:32 34.540863 -118.493575 151 13486ft 234kts
30-Oct-20 17:33 34.484035 -118.460344 151 12469ft 221kts
30-Oct-20 17:34 34.429528 -118.428518 151 11457ft 214kts
30-Oct-20 17:35 34.375968 -118.397312 151 10336ft 215kts
30-Oct-20 17:36 34.322938 -118.366441 151 9130ft 209kts
30-Oct-20 17:37 34.275053 -118.338610 151 8010ft 186kts
30-Oct-20 17:38 34.227999 -118.311288 152 6422ft 188kts
30-Oct-20 17:39 34.182565 -118.284939 152 5996ft 177kts
30-Oct-20 17:40 34.139179 -118.259605 152 5991ft 166kts
30-Oct-20 17:41 34.098627 -118.235932 152 5992ft 158kts
30-Oct-20 17:42 34.058870 -118.212695 152 5746ft 168kts
30-Oct-20 17:43 34.016415 -118.186850 152 4074ft 165kts
30-Oct-20 17:44 33.980085 -118.167127 174 3674ft 167kts
30-Oct-20 17:45 33.954463 -118.217044 259 2611ft 212kts
30-Oct-20 17:46 33.948253 -118.275696 263 1815ft 122kts
30-Oct-20 17:46 33.945171 -118.306071 263 1473ft 114kts
30-Oct-20 17:48 33.940570 -118.351313 263 659ft 115kts
30-Oct-20 17:48 33.937219 -118.382894 263 169ft 115kts
30-Oct-20 17:50 33.934405 -118.401972 148 119ft 0kts
30-Oct-20 17:50 33.934393 -118.401963 147 119ft 1kts
30-Oct-20 17:52 33.934963 -118.394637 83 106ft 30kts
30-Oct-20 17:52 33.933891 -118.394289 213 106ft 0kts
30-Oct-20 17:54 33.933891 -118.394289 213 106ft 0kts
30-Oct-20 17:54 33.933891 -118.394289 213 106ft 0kts
30-Oct-20 17:56 33.933891 -118.394289 213 106ft 0kts
30-Oct-20 17:56 33.933891 -118.394289 213 106ft 0kts
30-Oct-20 17:57 33.933891 -118.394289 213 106ft 0kts
30-Oct-20 17:58 33.933891 -118.394289 213 106ft 0kts
30-Oct-20 17:59 33.933891 -118.394289 213 106ft 0kts
30-Oct-20 18:00 33.933891 -118.394289 213 106ft 0kts
30-Oct-20 18:01 33.933891 -118.394289 213 106ft 0kts
30-Oct-20 18:02 33.933891 -118.394289 213 106ft 0kts
30-Oct-20 18:03 33.933891 -118.394289 213 106ft 0kts
30-Oct-20 18:04 33.933891 -118.394289 213 106ft 0kts

Navigation Log

Ident Type
Flight plan parsing failed, navigation log unavailable